Flight Track Log - Related Links

Times and Time Zones

All times are in EDT time to prevent confusion due to time zone crossing. See the FIV606 flight status page for this flight to view local times or setup timezone preferences in your user account.

Time Position Orientation Groundspeed Altitude Reporting Facility
EDT Latitude Longitude Course Direction KTS MPH feet Rate Location/Type
Wed 09:41:25 AM 40.8275 -96.7444 143° Southeast 152 175 2,100  Level Minneapolis Center
Wed 09:41:55 AM 40.8053 -96.7219 143° Southeast 216 249 3,400 3,363 Climbing Minneapolis Center
Wed 09:42:56 AM 40.8000 -96.6317 94° East 298 343 7,200 3,609 Climbing Minneapolis Center
Wed 09:44:08 AM 40.8719 -96.5511 40° Northeast 292 336 11,400 3,313 Climbing Minneapolis Center
Wed 09:45:10 AM 40.9386 -96.4606 46° Northeast 328 377 14,600 2,976 Climbing Minneapolis Center
Wed 09:46:11 AM 40.9792 -96.3400 66° East 361 415 17,500 2,634 Climbing Minneapolis Center
Wed 09:47:13 AM 40.9978 -96.2008 80° East 380 437 20,000 2,565 Climbing Minneapolis Center
Wed 09:48:15 AM 41.0194 -96.0311 80° East 390 449 22,800 2,274 Climbing Minneapolis Center
Wed 09:49:17 AM 41.0397 -95.8828 80° East 407 468 24,700 1,790 Climbing Minneapolis Center
Wed 09:50:19 AM 41.0594 -95.7292 80° East 421 484 26,500 1,707 Climbing Minneapolis Center
Wed 09:51:20 AM 41.0800 -95.5703 80° East 436 502 28,200 1,902 Climbing Minneapolis Center
Wed 09:52:22 AM 41.1017 -95.4114 80° East 440 506 30,400 2,177 Climbing Minneapolis Center
Wed 09:53:24 AM 41.1242 -95.2256 81° East 432 497 32,700 1,984 Climbing Minneapolis Center
Wed 09:54:26 AM 41.1442 -95.0719 80° East 427 491 34,500 1,317 Climbing Minneapolis Center
Wed 09:55:27 AM 41.1622 -94.9147 81° East 430 495 35,400 1,366 Climbing Minneapolis Center
Wed 09:56:29 AM 41.1819 -94.7578 80° East 432 497 37,300 1,258 Climbing Minneapolis Center
Wed 09:57:31 AM 41.2008 -94.6003 81° East 432 497 38,000 823 Climbing Minneapolis Center
Wed 09:58:33 AM 41.2178 -94.4419 82° East 433 498 39,000 488 Climbing Minneapolis Center
Wed 09:59:34 AM 41.2364 -94.2789 81° East 442 509 39,000 488 Level Minneapolis Center
Wed 10:00:36 AM 41.2589 -94.0919 81° East 456 525 40,000 968 Climbing Minneapolis Center
Wed 10:01:38 AM 41.2786 -93.9275 81° East 456 525 41,000 484 Climbing Minneapolis Center
Wed 10:02:40 AM 41.2964 -93.7639 82° East 452 520 41,000  Level Minneapolis Center
Wed 10:03:42 AM 41.3153 -93.5964 81° East 457 526 41,000  Level Minneapolis Center
Wed 10:04:43 AM 41.3306 -93.3883 84° East 470 541 41,000  Level Minneapolis Center
Wed 10:05:45 AM 41.3419 -93.2200 85° East 465 535 41,000  Level Minneapolis Center
Wed 10:06:47 AM 41.3519 -93.0517 85° East 461 531 41,000  Level Minneapolis Center
Wed 10:07:49 AM 41.3622 -92.8842 85° East 459 528 41,000  Level Minneapolis Center
Wed 10:08:51 AM 41.3722 -92.7158 85° East 458 527 41,000  Level Minneapolis Center
Wed 10:09:53 AM 41.3819 -92.5489 86° East 457 526 41,000  Level Minneapolis Center
Wed 10:10:19 AM 41.3875 -92.4472 86° East 455 524 41,000  Level Chicago Center
Wed 10:11:21 AM 41.3958 -92.3008 86° East 456 525 41,000  Level Chicago Center
Wed 10:12:23 AM 41.4067 -92.0986 86° East 462 532 41,000  Level Chicago Center
Wed 10:13:25 AM 41.4161 -91.9353 86° East 455 524 41,000  Level Chicago Center
Wed 10:14:28 AM 41.4236 -91.7686 87° East 456 525 41,000  Level Chicago Center
Wed 10:15:30 AM 41.4333 -91.6028 85° East 456 525 41,000  Level Chicago Center
Wed 10:16:32 AM 41.4422 -91.4028 87° East 458 527 41,000  Level Chicago Center
Wed 10:17:34 AM 41.4489 -91.2550 87° East 462 532 41,000  Level Chicago Center
Wed 10:18:36 AM 41.4583 -91.0517 86° East 461 531 41,000  Level Chicago Center
Wed 10:19:38 AM 41.4650 -90.8806 87° East 462 532 41,000  Level Chicago Center
Wed 10:20:40 AM 41.4722 -90.7097 87° East 462 532 41,000  Level Chicago Center
Wed 10:21:42 AM 41.4794 -90.5403 87° East 458 527 41,000  Level Chicago Center
Wed 10:22:44 AM 41.4864 -90.3700 87° East 459 528 41,000  Level Chicago Center
Wed 10:23:46 AM 41.4931 -90.2011 87° East 457 526 41,000  Level Chicago Center
Wed 10:24:48 AM 41.4992 -90.0325 87° East 454 522 41,000  Level Chicago Center
Wed 10:25:50 AM 41.5061 -89.8319 87° East 449 517 41,000  Level Chicago Center
Wed 10:26:52 AM 41.5122 -89.6661 87° East 446 513 41,000  Level Chicago Center
Wed 10:27:55 AM 41.5161 -89.4989 88° East 448 516 41,000  Level Chicago Center
Wed 10:28:57 AM 41.5228 -89.3344 87° East 445 512 41,000  Level Chicago Center
Wed 10:29:59 AM 41.5261 -89.1694 88° East 444 511 41,000  Level Chicago Center
Wed 10:31:01 AM 41.5308 -89.0047 88° East 443 510 41,000  Level Chicago Center
Wed 10:32:03 AM 41.5350 -88.8411 88° East 441 507 41,000  Level Chicago Center
Wed 10:33:05 AM 41.5403 -88.6383 88° East 445 512 41,000  Level Chicago Center
Wed 10:34:07 AM 41.5433 -88.4742 89° East 446 513 41,000  Level Chicago Center
Wed 10:35:09 AM 41.5489 -88.3097 87° East 446 513 41,000  Level Chicago Center
Wed 10:36:11 AM 41.5681 -88.1436 81° East 447 514 41,000  Level Chicago Center
Wed 10:37:13 AM 41.5881 -87.9750 81° East 452 520 41,000  Level Chicago Center
Wed 10:38:15 AM 41.6075 -87.8075 81° East 454 522 41,000  Level Chicago Center
Wed 10:39:17 AM 41.6253 -87.6431 82° East 449 517 41,000  Level Chicago Center
Wed 10:40:19 AM 41.6436 -87.4789 81° East 448 516 41,000  Level Chicago Center
Wed 10:41:21 AM 41.6664 -87.2814 81° East 449 517 41,000  Level Chicago Center
Wed 10:42:24 AM 41.6839 -87.1175 82° East 447 514 41,000  Level Chicago Center
Wed 10:43:26 AM 41.7017 -86.9533 82° East 448 516 41,000  Level Chicago Center
Wed 10:44:28 AM 41.7192 -86.7892 82° East 447 514 41,000  Level Chicago Center
Wed 10:45:30 AM 41.7394 -86.6031 82° East 447 514 41,000  Level Chicago Center
Wed 10:46:32 AM 41.7561 -86.4417 82° East 442 509 41,000  Level Chicago Center
Wed 10:47:34 AM 41.7717 -86.2783 83° East 440 506 41,000  Level Chicago Center
Wed 10:48:36 AM 41.7892 -86.1175 82° East 440 506 41,000  Level Chicago Center
Wed 10:49:38 AM 41.8058 -85.9556 82° East 438 504 41,000  Level Chicago Center
Wed 10:50:40 AM 41.8228 -85.7933 82° East 438 504 41,000  Level Chicago Center
Wed 10:51:42 AM 41.8417 -85.5989 83° East 437 503 41,000  Level Chicago Center
Wed 10:52:44 AM 41.8592 -85.4339 82° East 441 507 41,000  Level Chicago Center
Wed 10:53:46 AM 41.8744 -85.2692 83° East 438 504 41,000  Level Chicago Center
Wed 10:54:21 AM 41.8872 -85.1664 80° East 442 509 41,000  Level Cleveland Center
Wed 10:55:21 AM 41.9042 -85.0003 82° East 442 509 41,000  Level Cleveland Center
Wed 10:56:21 AM 41.9206 -84.8394 82° East 437 503 41,000  Level Cleveland Center
Wed 10:57:21 AM 41.9369 -84.6786 82° East 442 509 41,000  Level Cleveland Center
Wed 10:58:21 AM 41.9508 -84.5147 83° East 442 509 41,000  Level Cleveland Center
Wed 10:59:21 AM 41.9689 -84.3508 82° East 442 509 41,000  Level Cleveland Center
Wed 11:00:21 AM 41.9797 -84.2061 84° East 437 503 41,000  Level Cleveland Center
Wed 11:01:21 AM 41.9931 -84.0450 84° East 437 503 41,000  Level Cleveland Center
Wed 11:02:21 AM 42.0022 -83.8833 86° East 437 503 41,000  Level Cleveland Center
Wed 11:03:21 AM 42.0025 -83.7211 90° East 437 503 41,000  Level Cleveland Center
Wed 11:04:21 AM 42.0028 -83.5564 90° East 437 503 41,000  Level Cleveland Center
Wed 11:05:21 AM 42.0025 -83.3942 90° East 437 503 41,000  Level Cleveland Center
Wed 11:06:21 AM 42.0022 -83.2322 90° East 437 503 41,000  Level Cleveland Center
Wed 11:07:21 AM 41.9997 -83.0672 91° East 437 503 41,000  Level Cleveland Center
Wed 11:08:21 AM 42.0011 -82.9022 89° East 437 503 41,000  Level Cleveland Center
Wed 11:09:21 AM 42.0000 -82.7431 90° East 437 503 41,000  Level Cleveland Center
Wed 11:10:21 AM 42.0008 -82.5781 90° East 437 503 41,000  Level Cleveland Center
Wed 11:11:21 AM 41.9972 -82.4217 92° East 437 503 41,000  Level Cleveland Center
Wed 11:12:21 AM 41.9978 -82.2594 90° East 431 496 41,000  Level Cleveland Center
Wed 11:13:21 AM 41.9939 -82.0806 92° East 431 496 41,000  Level Cleveland Center
Wed 11:14:21 AM 41.9917 -81.9214 91° East 431 496 41,000  Level Cleveland Center
Wed 11:15:21 AM 41.9914 -81.7592 90° East 431 496 41,000  Level Cleveland Center
Wed 11:16:21 AM 41.9867 -81.6139 92° East 431 496 41,000  Level Cleveland Center
Wed 11:17:21 AM 41.9858 -81.4547 90° East 431 496 41,000  Level Cleveland Center
Wed 11:18:21 AM 41.9828 -81.2956 91° East 425 489 41,000  Level Cleveland Center
Wed 11:19:21 AM 41.9794 -81.1333 92° East 425 489 41,000  Level Cleveland Center
Wed 11:20:21 AM 41.9761 -80.9547 91° East 433 498 41,000  Level Cleveland Center
Wed 11:21:21 AM 41.9703 -80.7897 93° East 438 504 41,000  Level Cleveland Center
Wed 11:22:21 AM 41.9683 -80.6278 91° East 433 498 41,000  Level Cleveland Center
Wed 11:23:21 AM 41.9642 -80.4714 92° East 427 491 41,000  Level Cleveland Center
Wed 11:24:21 AM 41.9597 -80.3122 92° East 422 486 41,000  Level Cleveland Center
Wed 11:25:21 AM 41.9550 -80.1533 92° East 422 486 41,000  Level Cleveland Center
Wed 11:26:21 AM 41.9522 -80.0081 91° East 422 486 41,000  Level Cleveland Center
Wed 11:27:21 AM 41.9472 -79.8350 92° East 422 486 41,000  Level Cleveland Center
Wed 11:28:21 AM 41.9417 -79.6731 93° East 422 486 41,000  Level Cleveland Center
Wed 11:29:21 AM 41.9364 -79.5142 93° East 422 486 41,000  Level Cleveland Center
Wed 11:30:21 AM 41.9306 -79.3522 93° East 422 486 41,000  Level Cleveland Center
Wed 11:31:21 AM 41.9244 -79.1906 93° East 429 494 41,000  Level Cleveland Center
Wed 11:32:21 AM 41.9164 -79.0428 94° East 434 499 41,000  Level Cleveland Center
Wed 11:33:21 AM 41.9117 -78.8700 92° East 434 499 41,000  Level Cleveland Center
Wed 11:34:21 AM 41.9050 -78.7056 93° East 429 494 41,000  Level Cleveland Center
Wed 11:35:21 AM 41.8961 -78.5467 94° East 429 494 41,000  Level Cleveland Center
Wed 11:36:21 AM 41.8889 -78.3853 93° East 429 494 41,000  Level Cleveland Center
Wed 11:38:41 AM 41.8733 -78.0133 93° East 432 497 41,000 -594 Level New York Center
Wed 11:39:43 AM 41.8603 -77.8503 96° East 432 497 39,000 -2,118 Descending New York Center
Wed 11:40:40 AM 41.8214 -77.6986 109° East 432 497 36,800 -2,034 Descending New York Center
Wed 11:41:41 AM 41.7872 -77.5669 109° East 406 467 35,000 -1,033 Descending New York Center
Wed 11:42:42 AM 41.7550 -77.4386 109° East 378 435 34,700 -885 Descending New York Center
Wed 11:43:43 AM 41.7206 -77.3100 110° East 373 429 33,200 -1,513 Descending New York Center
Wed 11:44:41 AM 41.6858 -77.1817 110° East 367 422 31,700 -1,513 Descending New York Center
Wed 11:45:42 AM 41.6472 -77.0447 111° Southeast 372 428 30,200 -1,488 Descending New York Center
Wed 11:46:42 AM 41.6106 -76.9081 110° East 383 441 28,700 -1,513 Descending New York Center
Wed 11:47:41 AM 41.5742 -76.7689 109° East 388 447 27,200 -1,500 Descending New York Center
Wed 11:48:42 AM 41.5350 -76.6322 111° Southeast 388 447 25,700 -1,488 Descending New York Center
Wed 11:49:42 AM 41.4997 -76.5017 110° East 388 447 24,200 -850 Descending New York Center
Wed 11:50:42 AM 41.4678 -76.3856 110° East 380 437 24,000 -99 Descending New York Center
Wed 11:51:43 AM 41.4325 -76.2497 109° East 380 437 24,000 -99 Level New York Center
Wed 11:52:43 AM 41.3928 -76.1139 111° Southeast 386 444 23,800 -1,160 Descending New York Center
Wed 11:53:42 AM 41.3586 -75.9922 110° East 377 434 21,700 -2,034 Descending New York Center
Wed 11:54:41 AM 41.3225 -75.8678 111° Southeast 362 417 19,800 -1,850 Descending New York Center
Wed 11:55:42 AM 41.2881 -75.7464 111° Southeast 357 411 18,000 -1,438 Descending New York Center
Wed 11:56:42 AM 41.2550 -75.6364 112° Southeast 336 387 16,900 -1,438 Descending New York Center
Wed 11:57:43 AM 41.2217 -75.5347 114° Southeast 309 356 15,100 -1,736 Descending New York Center
Wed 11:58:43 AM 41.1883 -75.4358 114° Southeast 274 315 13,400 -1,563 Descending New York Center
Wed 11:59:42 AM 41.1561 -75.3483 116° Southeast 258 297 12,000 -1,450 Descending New York Center
Wed 12:00:43 PM 41.1239 -75.2661 117° Southeast 258 297 10,500 -1,488 Descending New York Center
Wed 12:01:43 PM 41.1039 -75.1878 109° East 248 285 9,000 -1,450 Descending New York Center
Wed 12:02:43 PM 41.0797 -75.1092 112° Southeast 235 270 7,600 -1,525 Descending New York Center
Wed 12:03:41 PM 41.0497 -75.0219 114° Southeast 235 270 6,000 -807 Descending New York Center
Wed 12:04:42 PM 41.0211 -74.9486 117° Southeast 235 270 6,000  Level New York Center
Wed 12:05:43 PM 40.9919 -74.8836 121° Southeast 222 255 6,000  Level New York Center
Wed 12:06:41 PM 40.9669 -74.8269 120° Southeast 201 231 6,000 -1,017 Level New York Center
Wed 12:07:41 PM 40.9319 -74.7536 122° Southeast 208 239 4,000 -1,475 Descending New York Center
Wed 12:08:43 PM 40.9047 -74.6917 120° Southeast 213 245 3,000 -504 Descending New York Center
Wed 12:09:40 PM 40.8717 -74.6211 122° Southeast 218 251 3,000  Level New York Center
Wed 12:10:20 PM 40.8500 -74.5667 118° Southeast 223 257 3,000  Level New York TRACON
Wed 12:11:14 PM 40.8167 -74.5000 123° Southeast 220 253 3,000  Level New York TRACON
Wed 12:12:09 PM 40.8000 -74.4500 114° Southeast 204 235 3,000  Level New York TRACON
Wed 12:13:09 PM 40.8500 -74.4167 27° Northeast 198 228 3,000  Level New York TRACON
Wed 12:14:08 PM 40.8333 -74.3833 123° Southeast 174 200 3,000  Level New York TRACON
Wed 12:15:14 PM 40.7833 -74.3500 153° Southeast 186 214 3,000 -476 Level New York TRACON
Wed 12:16:14 PM 40.7333 -74.3333 166° South 176 203 2,000 -500 Descending New York TRACON
Wed 12:17:14 PM 40.7333 -74.2833 90° East 153 176 2,000 -50 Level New York TRACON
Wed 12:18:14 PM 40.7500 -74.2167 72° East 176 203 1,900 -250 Descending New York TRACON
Wed 12:19:14 PM 40.7667 -74.1833 57° Northeast 170 196 1,500 -300 Descending New York TRACON
Wed 12:20:14 PM 40.8000 -74.1333 49° Northeast 174 200 1,300 -450 Descending New York TRACON
Wed 12:21:14 PM 40.8333 -74.1000 37° Northeast 122 140 600 -700 Descending New York TRACON
Wed 12:23:00 PM 40.8501 -74.0608 49° Northeast  Level Estimated
Wed 12:30:00 PM 40.8501 -74.0608 49° Northeast  Level Estimated

Login

Don't have an account? Register now (free) for customized features, flight alerts, and more!